Time;durP1;ratioP1;P1;durP2;ratioP2;P2;SDS_P1;SDS_P2;PMS_P1;PMS_P2;Temp;Humidity;BMP_temperature;BMP_pressure;BME280_temperature;BME280_humidity;BME280_pressure;Samples;Min_cycle;Max_cycle;Signal;HPM_P1;HPM_P2
2023/10/07 00:01:11;;;;;;;6.80;4.38;;;14.90;99.90;;;;;;4845079;29;20182;-63
2023/10/07 00:03:40;;;;;;;8.80;4.00;;;14.90;99.90;;;;;;4845333;29;20214;-63
2023/10/07 00:06:10;;;;;;;8.65;4.10;;;15.00;99.90;;;;;;4845203;29;20253;-63
2023/10/07 00:08:37;;;;;;;9.32;4.22;;;15.00;99.90;;;;;;4845234;29;20193;-62
2023/10/07 00:11:11;;;;;;;6.13;4.45;;;15.00;99.90;;;;;;4844922;29;20194;-63
2023/10/07 00:13:40;;;;;;;8.70;4.70;;;15.10;99.90;;;;;;4829756;29;20198;-63
2023/10/07 00:16:06;;;;;;;7.70;4.28;;;15.00;99.90;;;;;;4844890;29;20186;-63
2023/10/07 00:18:34;;;;;;;7.60;4.10;;;15.00;99.90;;;;;;4845107;29;20183;-63
2023/10/07 00:21:02;;;;;;;9.38;4.75;;;15.10;99.90;;;;;;4844883;29;20189;-63
2023/10/07 00:23:28;;;;;;;7.47;4.45;;;15.00;99.90;;;;;;4844741;29;20214;-62
2023/10/07 00:25:58;;;;;;;8.38;4.60;;;15.00;99.90;;;;;;4844848;29;20174;-63
2023/10/07 00:28:31;;;;;;;7.03;4.60;;;15.00;99.90;;;;;;4844643;29;20663;-63
2023/10/07 00:31:02;;;;;;;9.02;4.30;;;15.00;99.90;;;;;;4844932;29;20175;-63
2023/10/07 00:33:46;;;;;;;6.28;4.05;;;15.00;99.90;;;;;;4844904;29;20187;-62
2023/10/07 00:36:15;;;;;;;9.55;4.57;;;14.90;99.90;;;;;;4844712;29;20284;-63
2023/10/07 00:38:43;;;;;;;8.05;4.60;;;15.00;99.90;;;;;;4844641;29;20545;-64
2023/10/07 00:41:11;;;;;;;6.85;4.38;;;15.00;99.90;;;;;;4844704;29;20311;-63
2023/10/07 00:43:37;;;;;;;8.35;4.38;;;15.00;99.90;;;;;;4858822;29;20229;-63
2023/10/07 00:46:10;;;;;;;8.80;5.00;;;15.00;99.90;;;;;;4862935;29;20189;-63
2023/10/07 00:48:52;;;;;;;9.30;4.85;;;15.00;99.90;;;;;;4862178;29;20190;-63
2023/10/07 00:51:24;;;;;;;7.53;4.78;;;14.90;99.90;;;;;;4862764;29;20182;-63
2023/10/07 00:54:07;;;;;;;8.23;4.75;;;14.80;99.90;;;;;;4846378;29;20643;-63
2023/10/07 00:56:36;;;;;;;8.02;4.47;;;14.80;99.90;;;;;;4863092;29;20189;-63
2023/10/07 00:59:07;;;;;;;8.38;5.10;;;14.90;99.90;;;;;;4862684;29;20194;-61
2023/10/07 01:01:36;;;;;;;7.90;4.95;;;14.90;99.90;;;;;;4862653;29;20201;-63
2023/10/07 01:04:06;;;;;;;6.85;4.53;;;14.90;99.90;;;;;;4862371;29;20695;-63
2023/10/07 01:06:32;;;;;;;7.53;5.07;;;15.00;99.90;;;;;;4862308;29;20719;-63
2023/10/07 01:11:46;;;;;;;7.60;4.82;;;14.90;99.90;;;;;;4862790;29;20544;-63
2023/10/07 01:14:12;;;;;;;8.18;5.28;;;14.90;99.90;;;;;;4862408;29;20207;-63
2023/10/07 01:16:42;;;;;;;7.93;4.88;;;14.90;99.90;;;;;;4862314;29;20179;-63
2023/10/07 01:21:55;;;;;;;8.30;5.63;;;15.00;99.90;;;;;;4862406;29;20190;-62
2023/10/07 01:29:49;;;;;;;8.63;5.20;;;15.00;99.90;;;;;;4862236;29;20307;-63
2023/10/07 01:32:16;;;;;;;11.35;6.18;;;15.00;99.90;;;;;;4862192;29;20185;-63
2023/10/07 01:34:52;;;;;;;10.20;6.35;;;15.00;99.90;;;;;;4862016;29;20552;-62
2023/10/07 01:37:21;;;;;;;9.52;5.38;;;15.00;99.90;;;;;;4861928;29;20260;-63
2023/10/07 01:39:49;;;;;;;10.48;5.97;;;15.10;99.90;;;;;;4861873;29;20186;-63
2023/10/07 01:42:26;;;;;;;9.98;5.85;;;15.10;99.90;;;;;;4861810;29;20650;-63
2023/10/07 01:45:09;;;;;;;9.45;5.95;;;15.10;99.90;;;;;;4862049;29;20557;-62
2023/10/07 01:47:35;;;;;;;10.98;5.50;;;15.20;99.90;;;;;;4861766;29;20189;-63
2023/10/07 01:50:11;;;;;;;9.38;5.45;;;15.20;99.90;;;;;;4861878;29;20182;-63
2023/10/07 01:52:37;;;;;;;10.57;5.50;;;15.20;99.90;;;;;;4861665;29;20620;-63
2023/10/07 01:55:08;;;;;;;10.68;5.63;;;15.20;99.90;;;;;;4861731;29;20210;-62
2023/10/07 01:57:34;;;;;;;14.43;6.93;;;15.10;99.90;;;;;;4861691;29;20268;-63
2023/10/07 02:00:05;;;;;;;10.23;5.55;;;15.10;99.90;;;;;;4861497;29;20173;-63
2023/10/07 02:02:31;;;;;;;11.50;5.50;;;15.20;99.90;;;;;;4861709;29;20190;-63
2023/10/07 02:04:56;;;;;;;10.82;5.72;;;15.20;99.90;;;;;;4861572;29;20766;-63
2023/10/07 02:07:22;;;;;;;10.38;6.07;;;15.30;99.90;;;;;;4861669;29;20185;-63
2023/10/07 02:09:48;;;;;;;9.50;5.60;;;15.30;99.90;;;;;;4861542;29;20182;-63
2023/10/07 02:12:18;;;;;;;9.70;5.63;;;15.30;99.90;;;;;;4861389;29;20178;-63
2023/10/07 02:14:44;;;;;;;6.78;5.57;;;15.40;99.90;;;;;;4861350;29;20182;-62
2023/10/07 02:17:11;;;;;;;9.13;5.65;;;15.30;99.90;;;;;;4861281;29;20277;-65
2023/10/07 02:19:40;;;;;;;9.80;5.65;;;15.30;99.90;;;;;;4861384;29;20185;-63
2023/10/07 02:22:22;;;;;;;7.90;5.47;;;15.30;99.90;;;;;;4861631;29;20534;-63
2023/10/07 02:24:55;;;;;;;8.63;5.35;;;15.30;99.90;;;;;;4861203;29;20305;-63
2023/10/07 02:27:25;;;;;;;8.60;5.60;;;15.30;99.90;;;;;;4861143;29;20641;-63
2023/10/07 02:29:52;;;;;;;9.45;5.95;;;15.30;99.90;;;;;;4861272;29;20237;-62
2023/10/07 02:32:17;;;;;;;8.55;6.40;;;15.40;99.90;;;;;;4844950;29;20280;-63
2023/10/07 02:34:57;;;;;;;8.80;5.80;;;15.40;99.90;;;;;;4861068;29;20270;-64
2023/10/07 02:37:25;;;;;;;11.10;6.80;;;15.30;99.90;;;;;;4861208;29;20226;-63
2023/10/07 02:42:46;;;;;;;9.32;6.18;;;15.30;99.90;;;;;;4825945;29;20589;-63
2023/10/07 02:48:00;;;;;;;13.90;6.80;;;15.30;99.90;;;;;;4861117;29;20272;-63
2023/10/07 02:50:26;;;;;;;11.45;6.47;;;15.40;99.90;;;;;;4860851;29;20241;-61
2023/10/07 02:52:54;;;;;;;11.13;6.18;;;15.40;99.90;;;;;;4844512;29;20194;-63
2023/10/07 02:57:47;;;;;;;9.63;6.00;;;15.40;99.90;;;;;;4860898;29;20197;-63
2023/10/07 03:00:35;;;;;;;13.30;6.70;;;15.50;99.90;;;;;;4860910;29;20185;-63
2023/10/07 03:05:46;;;;;;;14.40;7.25;;;15.50;99.90;;;;;;4860900;29;20244;-63
2023/10/07 03:08:22;;;;;;;13.57;6.90;;;15.50;99.90;;;;;;4860899;29;20182;-63
2023/10/07 03:11:03;;;;;;;13.75;6.80;;;15.40;99.90;;;;;;4860784;29;20285;-63
2023/10/07 03:13:30;;;;;;;9.43;6.43;;;15.50;99.90;;;;;;4863474;29;20190;-63
2023/10/07 03:18:41;;;;;;;10.85;6.85;;;15.40;99.90;;;;;;4864732;29;20263;-63
2023/10/07 03:21:10;;;;;;;10.80;6.85;;;15.50;99.90;;;;;;4864359;29;20253;-63
2023/10/07 03:23:45;;;;;;;11.52;6.32;;;15.50;99.90;;;;;;4864132;29;20221;-64
2023/10/07 03:26:20;;;;;;;9.80;6.55;;;15.50;99.90;;;;;;4864439;29;20189;-64
2023/10/07 03:28:53;;;;;;;8.77;6.40;;;15.50;99.90;;;;;;4864404;29;20241;-63
2023/10/07 03:31:27;;;;;;;8.70;6.47;;;15.50;99.90;;;;;;4864283;29;20222;-64
2023/10/07 03:33:53;;;;;;;9.82;6.63;;;15.50;99.90;;;;;;4864209;29;20190;-63
2023/10/07 03:38:55;;;;;;;9.88;6.38;;;15.40;99.90;;;;;;4864239;29;20198;-64
2023/10/07 03:41:21;;;;;;;11.48;6.72;;;15.50;99.90;;;;;;4864128;29;20261;-64
2023/10/07 03:43:47;;;;;;;11.80;6.50;;;15.50;99.90;;;;;;4863957;29;20220;-64
2023/10/07 03:46:16;;;;;;;8.98;6.53;;;15.50;99.90;;;;;;4864050;29;20174;-63
2023/10/07 03:48:53;;;;;;;9.77;6.53;;;15.50;99.90;;;;;;4863741;29;20273;-63
2023/10/07 03:51:21;;;;;;;8.25;6.10;;;15.60;99.90;;;;;;4863994;29;20189;-63
2023/10/07 03:53:49;;;;;;;9.70;6.32;;;15.60;99.90;;;;;;4863888;29;20258;-63
2023/10/07 03:56:14;;;;;;;12.50;6.10;;;15.60;99.90;;;;;;4863762;29;20182;-63
2023/10/07 03:58:41;;;;;;;11.18;6.63;;;15.60;99.90;;;;;;4863691;29;20178;-63
2023/10/07 04:01:17;;;;;;;13.15;6.57;;;15.70;99.90;;;;;;4863687;29;20246;-63
2023/10/07 04:03:47;;;;;;;9.80;6.05;;;15.70;99.90;;;;;;4863770;29;20225;-64
2023/10/07 04:06:20;;;;;;;10.70;5.93;;;15.70;99.90;;;;;;4863337;29;20233;-64
2023/10/07 04:08:52;;;;;;;9.13;5.85;;;15.70;99.90;;;;;;4863547;29;20178;-63
2023/10/07 04:11:25;;;;;;;9.85;5.35;;;15.70;99.90;;;;;;4863542;29;20186;-63
2023/10/07 04:13:53;;;;;;;11.80;6.47;;;15.60;99.90;;;;;;4863411;29;20182;-63
2023/10/07 04:16:24;;;;;;;11.32;6.47;;;15.80;99.90;;;;;;4863611;29;20190;-63
2023/10/07 04:19:06;;;;;;;9.55;6.03;;;15.70;99.90;;;;;;4863464;29;20189;-62
2023/10/07 04:21:39;;;;;;;10.90;6.15;;;15.70;99.90;;;;;;4863460;29;20514;-64
2023/10/07 04:24:09;;;;;;;11.15;6.10;;;15.60;99.90;;;;;;4861956;29;20279;-63
2023/10/07 04:26:39;;;;;;;9.75;6.00;;;15.60;99.90;;;;;;4863458;29;20331;-63
2023/10/07 04:29:14;;;;;;;10.27;6.03;;;15.70;99.90;;;;;;4863310;29;20193;-63
2023/10/07 04:31:45;;;;;;;10.00;6.15;;;15.70;99.90;;;;;;4863235;29;20525;-63
2023/10/07 04:34:18;;;;;;;10.15;6.10;;;15.70;99.90;;;;;;4863098;29;20640;-63
2023/10/07 04:39:38;;;;;;;9.02;5.88;;;15.70;99.90;;;;;;4863241;29;20189;-63
2023/10/07 04:42:07;;;;;;;13.48;5.97;;;15.70;99.90;;;;;;4863007;29;20670;-63
2023/10/07 04:50:08;;;;;;;11.18;5.80;;;15.60;99.90;;;;;;4863173;29;20197;-64
2023/10/07 04:53:10;;;;;;;10.00;5.38;;;15.60;99.90;;;;;;4863016;29;20268;-63
2023/10/07 04:55:28;;;;;;;8.88;5.22;;;15.60;99.90;;;;;;4861436;29;20194;-63
2023/10/07 05:03:00;;;;;;;10.65;5.70;;;15.70;99.90;;;;;;4862736;29;20216;-63
2023/10/07 05:05:30;;;;;;;9.75;5.80;;;15.70;99.90;;;;;;4862648;29;20226;-64
2023/10/07 05:08:08;;;;;;;10.65;5.70;;;15.60;99.90;;;;;;4862502;29;20178;-67
2023/10/07 05:10:39;;;;;;;10.32;5.63;;;15.70;99.90;;;;;;4862721;29;20266;-67
2023/10/07 05:13:08;;;;;;;11.10;5.60;;;15.70;99.90;;;;;;4862565;29;20186;-66
2023/10/07 05:15:41;;;;;;;9.43;5.65;;;15.70;99.90;;;;;;4862501;29;20178;-66
2023/10/07 05:18:11;;;;;;;9.50;5.68;;;15.70;99.90;;;;;;4862349;29;20235;-66
2023/10/07 05:20:37;;;;;;;9.38;4.75;;;15.70;99.90;;;;;;4862197;29;20186;-67
2023/10/07 05:23:04;;;;;;;9.05;5.00;;;15.80;99.90;;;;;;4862382;29;20205;-66
2023/10/07 05:25:35;;;;;;;8.88;5.32;;;15.70;99.90;;;;;;4862406;29;20276;-66
2023/10/07 05:28:11;;;;;;;9.43;5.78;;;15.70;99.90;;;;;;4862301;29;20277;-66
2023/10/07 05:30:38;;;;;;;10.82;6.38;;;15.70;99.90;;;;;;4862291;29;20177;-66
2023/10/07 05:33:08;;;;;;;10.52;6.60;;;15.70;99.90;;;;;;4862042;29;20242;-68
2023/10/07 05:35:37;;;;;;;8.48;5.82;;;15.80;99.90;;;;;;4861842;29;20201;-68
2023/10/07 05:38:09;;;;;;;7.65;6.07;;;15.70;99.90;;;;;;4862067;29;20273;-67
2023/10/07 05:40:38;;;;;;;8.73;6.13;;;15.70;99.90;;;;;;4861680;29;20644;-68
2023/10/07 05:43:08;;;;;;;11.40;6.85;;;15.70;99.90;;;;;;4850769;29;20246;-68
2023/10/07 05:45:34;;;;;;;12.18;6.53;;;15.70;99.90;;;;;;4843348;29;20256;-67
2023/10/07 05:48:03;;;;;;;7.90;5.75;;;15.70;99.90;;;;;;4843530;29;20182;-67
2023/10/07 05:50:32;;;;;;;8.93;6.10;;;15.70;99.90;;;;;;4840324;29;20190;-67
2023/10/07 05:53:04;;;;;;;9.57;5.80;;;15.70;99.90;;;;;;4834153;29;20182;-67
2023/10/07 05:55:33;;;;;;;10.73;6.38;;;15.70;99.90;;;;;;4834727;29;20181;-67
2023/10/07 05:58:01;;;;;;;13.00;6.30;;;15.70;99.90;;;;;;4833496;29;20550;-67
2023/10/07 06:00:31;;;;;;;10.52;6.60;;;15.70;99.90;;;;;;4832882;29;20179;-67
2023/10/07 06:02:57;;;;;;;8.55;5.72;;;15.60;99.90;;;;;;4840879;29;20206;-68
2023/10/07 06:05:27;;;;;;;12.00;6.20;;;15.70;99.90;;;;;;4843103;29;20279;-68
2023/10/07 06:07:59;;;;;;;13.80;5.93;;;15.70;99.90;;;;;;4843110;29;20186;-66
2023/10/07 06:10:26;;;;;;;9.23;6.18;;;15.80;99.90;;;;;;4842207;29;20210;-67
2023/10/07 06:12:55;;;;;;;9.65;5.85;;;15.80;99.90;;;;;;4848893;29;20182;-67
2023/10/07 06:15:23;;;;;;;10.38;6.13;;;15.80;99.90;;;;;;4842663;29;20640;-68
2023/10/07 06:17:50;;;;;;;12.02;6.28;;;15.70;99.90;;;;;;4842780;29;20319;-68
2023/10/07 06:20:16;;;;;;;8.93;6.30;;;15.70;99.90;;;;;;4842724;29;20185;-68
2023/10/07 06:22:48;;;;;;;9.75;6.75;;;15.70;99.90;;;;;;4849444;29;20186;-68
2023/10/07 06:25:17;;;;;;;11.07;6.40;;;15.80;99.90;;;;;;4860941;29;20258;-67
2023/10/07 06:27:44;;;;;;;11.48;6.45;;;15.80;99.90;;;;;;4860914;29;20658;-68
2023/10/07 06:30:20;;;;;;;9.95;6.35;;;15.80;99.90;;;;;;4861112;29;20186;-68
2023/10/07 06:32:55;;;;;;;11.02;6.80;;;15.80;99.90;;;;;;4860907;29;20182;-67
2023/10/07 06:35:23;;;;;;;8.23;6.15;;;15.70;99.90;;;;;;4861005;29;20181;-68
2023/10/07 06:38:03;;;;;;;11.57;6.82;;;15.80;99.90;;;;;;4847972;29;20665;-67
2023/10/07 06:40:29;;;;;;;11.38;7.05;;;15.70;99.90;;;;;;4832378;29;20258;-68
2023/10/07 06:42:56;;;;;;;8.25;6.15;;;15.70;99.90;;;;;;4833725;29;20284;-67
2023/10/07 06:45:35;;;;;;;10.02;5.97;;;15.80;99.90;;;;;;4832964;29;20266;-68
2023/10/07 06:48:06;;;;;;;8.93;6.47;;;15.80;99.90;;;;;;4833698;29;20183;-67
2023/10/07 06:50:33;;;;;;;10.80;6.40;;;15.70;99.90;;;;;;4832039;29;20240;-67
2023/10/07 06:52:59;;;;;;;13.35;6.70;;;15.70;99.90;;;;;;4832908;29;20257;-68
2023/10/07 06:55:24;;;;;;;9.60;6.47;;;15.70;99.90;;;;;;4823504;29;20187;-67
2023/10/07 06:57:56;;;;;;;10.27;6.32;;;15.80;99.90;;;;;;4823713;29;20236;-68
2023/10/07 07:00:27;;;;;;;10.73;6.43;;;15.80;99.90;;;;;;4824170;29;20187;-68
2023/10/07 07:03:09;;;;;;;10.18;6.47;;;15.90;99.90;;;;;;4823901;29;20298;-67
2023/10/07 07:05:35;;;;;;;10.88;6.70;;;15.90;99.90;;;;;;4824156;29;20265;-68
2023/10/07 07:08:03;;;;;;;11.45;6.85;;;15.90;99.90;;;;;;4824253;29;20638;-68
2023/10/07 07:10:31;;;;;;;11.05;6.68;;;15.90;99.90;;;;;;4824261;29;20275;-69
2023/10/07 07:12:59;;;;;;;12.02;6.70;;;15.80;99.90;;;;;;4824196;29;20203;-67
2023/10/07 07:15:28;;;;;;;9.13;6.35;;;15.80;99.90;;;;;;4824040;29;20555;-67
2023/10/07 07:20:54;;;;;;;9.88;6.38;;;15.70;99.90;;;;;;4844126;29;20198;-67
2023/10/07 07:23:24;;;;;;;11.65;7.07;;;15.80;99.90;;;;;;4860813;29;20253;-68
2023/10/07 07:25:59;;;;;;;14.35;6.68;;;15.80;99.90;;;;;;4860490;29;20555;-67
2023/10/07 07:28:27;;;;;;;10.93;6.43;;;15.80;99.90;;;;;;4860768;29;20186;-68
2023/10/07 07:30:57;;;;;;;11.70;6.70;;;15.80;99.90;;;;;;4860680;29;20270;-68
2023/10/07 07:33:34;;;;;;;9.38;5.70;;;15.80;99.90;;;;;;4860792;29;20194;-68
2023/10/07 07:36:06;;;;;;;11.93;6.10;;;15.80;99.90;;;;;;4860670;29;20174;-67
2023/10/07 07:38:43;;;;;;;13.80;6.82;;;15.80;99.90;;;;;;4860824;29;20213;-67
2023/10/07 07:41:09;;;;;;;11.55;6.57;;;15.80;99.90;;;;;;4860140;29;20190;-67
2023/10/07 07:43:37;;;;;;;11.60;6.50;;;15.70;99.90;;;;;;4860531;29;20213;-67
2023/10/07 07:48:43;;;;;;;10.38;6.22;;;15.80;99.90;;;;;;4860448;29;20201;-68
2023/10/07 07:51:16;;;;;;;9.80;6.70;;;15.80;99.90;;;;;;4860532;29;20280;-68
2023/10/07 07:53:41;;;;;;;13.20;6.88;;;15.80;99.90;;;;;;4860637;29;20201;-67
2023/10/07 07:56:13;;;;;;;10.00;6.88;;;15.80;99.90;;;;;;4860536;29;20632;-68
2023/10/07 07:58:41;;;;;;;11.68;6.30;;;15.90;99.90;;;;;;4861861;29;20183;-68
2023/10/07 08:01:15;;;;;;;9.88;6.43;;;16.00;99.90;;;;;;4863528;29;20758;-68
2023/10/07 08:03:42;;;;;;;10.00;6.72;;;16.10;99.90;;;;;;4863782;29;20213;-70
2023/10/07 08:06:12;;;;;;;9.60;6.47;;;16.20;99.90;;;;;;4863493;29;20222;-70
2023/10/07 08:08:37;;;;;;;13.32;7.20;;;16.30;99.90;;;;;;4859077;29;20197;-70
2023/10/07 08:11:05;;;;;;;13.90;6.60;;;16.40;99.90;;;;;;4860712;29;20583;-70
2023/10/07 08:13:31;;;;;;;10.68;6.88;;;16.50;99.90;;;;;;4844867;29;20541;-69
2023/10/07 08:16:05;;;;;;;9.98;5.95;;;16.50;99.90;;;;;;4859073;29;20190;-68
2023/10/07 08:18:32;;;;;;;10.73;5.70;;;16.60;99.90;;;;;;4863312;29;20182;-69
2023/10/07 08:21:09;;;;;;;8.57;5.70;;;16.70;99.90;;;;;;4863213;29;20647;-69
2023/10/07 08:23:36;;;;;;;11.77;6.50;;;16.80;99.90;;;;;;4863145;29;20283;-69
2023/10/07 08:26:22;;;;;;;8.13;5.50;;;16.70;99.90;;;;;;4862677;29;20174;-69
2023/10/07 08:31:27;;;;;;;8.68;5.50;;;17.00;99.90;;;;;;4863016;29;20527;-69
2023/10/07 08:34:15;;;;;;;12.52;6.03;;;17.00;99.90;;;;;;4863245;29;20589;-69
2023/10/07 08:36:43;;;;;;;8.68;5.13;;;17.10;99.90;;;;;;4862456;29;20190;-70
2023/10/07 08:39:09;;;;;;;12.25;5.55;;;17.30;99.90;;;;;;4863247;29;20239;-69
2023/10/07 08:41:47;;;;;;;9.98;5.18;;;17.40;99.90;;;;;;4863082;29;20174;-69
2023/10/07 08:44:13;;;;;;;7.07;4.90;;;17.50;99.90;;;;;;4862917;29;20252;-69
2023/10/07 08:46:52;;;;;;;8.65;4.60;;;17.50;99.90;;;;;;4862974;29;20636;-69
2023/10/07 08:49:26;;;;;;;8.18;4.63;;;17.50;99.90;;;;;;4862888;29;20207;-69
2023/10/07 08:51:54;;;;;;;12.23;4.88;;;17.60;99.90;;;;;;4862776;29;20173;-69
2023/10/07 08:54:26;;;;;;;7.60;4.07;;;17.70;99.90;;;;;;4862993;29;20257;-68
2023/10/07 08:57:10;;;;;;;8.07;4.57;;;17.70;99.90;;;;;;4862804;29;20196;-69
2023/10/07 08:59:38;;;;;;;9.45;4.72;;;17.80;99.90;;;;;;4862636;29;20640;-69
2023/10/07 09:02:04;;;;;;;7.78;4.25;;;17.90;99.90;;;;;;4862863;29;20178;-69
2023/10/07 09:04:33;;;;;;;9.68;5.00;;;17.90;99.90;;;;;;4862482;29;20218;-69
2023/10/07 09:07:00;;;;;;;9.57;4.72;;;17.90;99.90;;;;;;4862539;29;20627;-69
2023/10/07 09:09:37;;;;;;;6.25;4.10;;;18.00;99.90;;;;;;4862150;29;20659;-69
2023/10/07 09:12:08;;;;;;;7.95;4.47;;;18.10;99.90;;;;;;4862270;29;20178;-69
2023/10/07 09:14:35;;;;;;;8.13;4.72;;;18.10;99.90;;;;;;4862638;29;20193;-69
2023/10/07 09:17:04;;;;;;;11.98;4.10;;;18.20;99.90;;;;;;4862596;29;20181;-70
2023/10/07 09:19:30;;;;;;;8.27;4.15;;;18.30;99.90;;;;;;4861924;29;20560;-68
2023/10/07 09:21:57;;;;;;;8.32;4.43;;;18.30;99.90;;;;;;4862087;29;20198;-63
2023/10/07 09:24:26;;;;;;;7.40;4.20;;;18.40;99.90;;;;;;4861895;29;20598;-66
2023/10/07 09:26:56;;;;;;;11.55;4.90;;;18.40;99.90;;;;;;4861848;29;20182;-68
2023/10/07 09:29:27;;;;;;;8.70;4.75;;;18.50;99.90;;;;;;4861098;29;20197;-68
2023/10/07 09:32:12;;;;;;;9.20;4.65;;;18.60;99.90;;;;;;4862320;29;20182;-70
2023/10/07 09:34:47;;;;;;;8.80;4.13;;;18.70;99.90;;;;;;4862125;29;20635;-70
2023/10/07 09:37:17;;;;;;;8.05;4.50;;;18.70;99.90;;;;;;4862078;29;20188;-71
2023/10/07 09:39:53;;;;;;;7.68;4.25;;;18.80;99.90;;;;;;4862226;29;20178;-71
2023/10/07 09:42:26;;;;;;;8.63;4.43;;;18.90;99.90;;;;;;4862085;29;20241;-71
2023/10/07 09:47:37;;;;;;;8.90;4.55;;;18.80;99.90;;;;;;4861843;29;20197;-68
2023/10/07 09:50:19;;;;;;;6.32;4.65;;;18.90;99.90;;;;;;4862044;29;20186;-70
2023/10/07 09:52:48;;;;;;;11.07;4.50;;;18.90;99.90;;;;;;4862222;29;20581;-70
2023/10/07 09:55:38;;;;;;;7.60;4.95;;;19.00;99.90;;;;;;4845279;29;20186;-71
2023/10/07 09:58:17;;;;;;;7.38;4.57;;;19.00;99.90;;;;;;4861633;29;20185;-71
2023/10/07 10:01:07;;;;;;;8.25;4.60;;;19.10;99.90;;;;;;4854424;29;20183;-71
2023/10/07 10:03:51;;;;;;;8.73;5.00;;;19.20;99.90;;;;;;4842870;29;20297;-70
2023/10/07 10:06:50;;;;;;;10.57;4.90;;;19.20;99.90;;;;;;4841467;29;20238;-71
2023/10/07 10:09:23;;;;;;;7.15;4.53;;;19.20;99.90;;;;;;4843269;29;20217;-71
2023/10/07 10:12:18;;;;;;;10.50;4.65;;;19.30;99.90;;;;;;4843148;29;20288;-71
2023/10/07 10:17:39;;;;;;;6.47;4.70;;;19.50;99.90;;;;;;4814322;29;20195;-71
2023/10/07 10:20:14;;;;;;;8.80;4.28;;;19.60;99.90;;;;;;4843033;29;20178;-71
2023/10/07 10:22:53;;;;;;;11.52;4.43;;;19.70;99.90;;;;;;4842925;29;20170;-71
2023/10/07 10:25:36;;;;;;;9.48;4.32;;;19.80;99.90;;;;;;4842705;29;20206;-71
2023/10/07 10:28:03;;;;;;;8.95;4.82;;;19.70;99.90;;;;;;4843044;29;20183;-71
2023/10/07 10:30:32;;;;;;;9.70;4.63;;;19.80;99.90;;;;;;4842864;29;20193;-71
2023/10/07 10:33:08;;;;;;;9.35;4.57;;;19.90;99.90;;;;;;4842794;29;20183;-70
2023/10/07 10:35:37;;;;;;;9.45;4.78;;;19.90;99.90;;;;;;4842612;29;20265;-71
2023/10/07 10:38:09;;;;;;;9.38;5.00;;;19.80;99.90;;;;;;4842839;29;20183;-72
2023/10/07 10:40:36;;;;;;;6.65;3.95;;;19.90;99.90;;;;;;4842775;29;20211;-71
2023/10/07 10:43:02;;;;;;;8.27;4.40;;;20.00;99.90;;;;;;4842503;29;20194;-71
2023/10/07 10:45:30;;;;;;;7.15;4.72;;;20.10;99.90;;;;;;4842610;29;20186;-71
2023/10/07 10:47:59;;;;;;;7.15;4.85;;;20.20;99.90;;;;;;4842357;29;20190;-70
2023/10/07 10:50:28;;;;;;;10.63;4.63;;;20.30;99.90;;;;;;4842402;29;20186;-71
2023/10/07 10:52:55;;;;;;;7.68;4.70;;;20.30;99.90;;;;;;4842757;29;20537;-71
2023/10/07 10:55:27;;;;;;;9.60;4.63;;;20.30;99.90;;;;;;4842552;29;20250;-70
2023/10/07 10:57:52;;;;;;;8.23;4.68;;;20.30;99.90;;;;;;4842701;29;20266;-71
2023/10/07 11:00:22;;;;;;;7.97;4.55;;;20.30;99.90;;;;;;4842491;29;20215;-72
2023/10/07 11:02:53;;;;;;;8.60;4.95;;;20.40;99.90;;;;;;4842437;29;20190;-71
2023/10/07 11:05:22;;;;;;;7.35;4.15;;;20.40;99.90;;;;;;4842325;29;20232;-71
2023/10/07 11:07:50;;;;;;;8.05;4.60;;;20.50;99.90;;;;;;4842503;29;20183;-70
2023/10/07 11:10:25;;;;;;;9.82;4.50;;;20.60;99.90;;;;;;4842496;29;20668;-72
2023/10/07 11:12:52;;;;;;;9.82;4.75;;;20.50;99.90;;;;;;4842708;29;20573;-71
2023/10/07 11:15:27;;;;;;;10.02;4.45;;;20.50;99.90;;;;;;4842277;29;20175;-71
2023/10/07 11:18:07;;;;;;;7.07;4.47;;;20.60;99.90;;;;;;4842561;29;20226;-72
2023/10/07 11:20:33;;;;;;;8.10;4.90;;;20.70;99.90;;;;;;4842455;29;20170;-71
2023/10/07 11:22:59;;;;;;;6.88;4.38;;;20.80;99.90;;;;;;4842229;29;20655;-71
2023/10/07 11:25:28;;;;;;;8.07;4.72;;;20.90;99.90;;;;;;4842202;29;20178;-72
2023/10/07 11:27:54;;;;;;;7.05;4.32;;;20.90;99.90;;;;;;4842176;29;20179;-72
2023/10/07 11:30:21;;;;;;;8.32;4.25;;;20.90;99.90;;;;;;4842248;29;20263;-66
2023/10/07 11:32:47;;;;;;;8.60;4.50;;;21.00;99.90;;;;;;4842424;29;20179;-71
2023/10/07 11:35:19;;;;;;;7.22;4.05;;;21.10;99.90;;;;;;4845757;29;20193;-70
2023/10/07 11:37:57;;;;;;;9.20;4.05;;;21.10;99.90;;;;;;4844851;29;20550;-70
2023/10/07 11:40:23;;;;;;;6.53;4.30;;;21.20;99.90;;;;;;4843600;29;20190;-71
2023/10/07 11:42:49;;;;;;;6.00;3.70;;;21.30;99.90;;;;;;4845838;29;20187;-71
2023/10/07 11:45:16;;;;;;;5.82;3.42;;;21.30;99.90;;;;;;4845461;29;20201;-72
2023/10/07 11:47:43;;;;;;;5.00;3.30;;;21.40;99.90;;;;;;4845780;29;20174;-72
2023/10/07 11:50:09;;;;;;;6.43;2.90;;;21.40;99.90;;;;;;4844988;29;20187;-72
2023/10/07 11:52:37;;;;;;;7.80;3.92;;;21.60;99.90;;;;;;4845408;29;20175;-73
2023/10/07 11:55:07;;;;;;;8.95;3.67;;;21.50;99.90;;;;;;4845469;29;20197;-71
2023/10/07 11:57:37;;;;;;;6.75;4.07;;;21.60;99.90;;;;;;4845522;29;20186;-72
2023/10/07 12:00:23;;;;;;;11.00;3.85;;;21.50;99.90;;;;;;4845331;29;20198;-72
2023/10/07 12:02:50;;;;;;;5.32;3.33;;;21.60;99.90;;;;;;4845404;29;20179;-72
2023/10/07 12:05:16;;;;;;;9.63;3.67;;;21.70;99.90;;;;;;4845289;29;20239;-72
2023/10/07 12:07:42;;;;;;;9.32;3.90;;;21.70;99.90;;;;;;4845365;29;20190;-72
2023/10/07 12:10:15;;;;;;;7.93;4.00;;;21.70;99.90;;;;;;4845320;29;20270;-67
2023/10/07 12:12:45;;;;;;;6.78;3.38;;;21.70;99.90;;;;;;4845222;29;20195;-72
2023/10/07 12:15:15;;;;;;;9.13;3.60;;;21.90;99.90;;;;;;4845066;29;20186;-71
2023/10/07 12:17:42;;;;;;;4.47;3.50;;;21.80;99.90;;;;;;4845001;29;20182;-70
2023/10/07 12:20:12;;;;;;;8.35;3.70;;;21.80;99.90;;;;;;4845100;29;20238;-70
2023/10/07 12:22:42;;;;;;;7.28;3.90;;;21.70;99.90;;;;;;4845102;29;20183;-71
2023/10/07 12:25:16;;;;;;;6.30;3.20;;;21.60;99.90;;;;;;4844942;29;20255;-66
2023/10/07 12:27:43;;;;;;;7.03;3.42;;;21.70;99.90;;;;;;4844822;29;20174;-71
2023/10/07 12:30:11;;;;;;;8.57;3.55;;;21.70;99.90;;;;;;4844747;29;20183;-69
2023/10/07 12:32:42;;;;;;;10.23;3.45;;;21.60;99.90;;;;;;4844464;29;20191;-72
2023/10/07 12:35:10;;;;;;;9.27;3.60;;;21.60;99.90;;;;;;4844742;29;20559;-67
2023/10/07 12:37:40;;;;;;;7.45;3.95;;;21.50;99.90;;;;;;4844728;29;20244;-72
2023/10/07 12:40:10;;;;;;;6.75;3.33;;;21.50;99.90;;;;;;4844570;29;20178;-72
2023/10/07 12:42:39;;;;;;;9.25;3.80;;;21.60;99.90;;;;;;4844554;29;20183;-72
2023/10/07 12:45:05;;;;;;;4.70;3.13;;;21.70;99.90;;;;;;4843132;29;20215;-72
2023/10/07 12:47:32;;;;;;;6.72;3.55;;;21.80;99.90;;;;;;4844492;29;20179;-72
2023/10/07 12:49:57;;;;;;;7.05;3.85;;;21.80;99.90;;;;;;4844448;29;20212;-72
2023/10/07 12:52:26;;;;;;;8.07;3.38;;;21.80;99.90;;;;;;4844591;29;20187;-72
2023/10/07 12:54:52;;;;;;;5.60;3.33;;;21.70;99.90;;;;;;4844303;29;20229;-72
2023/10/07 12:57:18;;;;;;;8.13;3.45;;;21.70;99.90;;;;;;4844249;29;20187;-72
2023/10/07 12:59:47;;;;;;;8.90;3.78;;;21.70;99.90;;;;;;4844391;29;20211;-67
2023/10/07 13:02:17;;;;;;;8.57;3.88;;;21.70;99.90;;;;;;4858123;29;20211;-72
2023/10/07 13:04:47;;;;;;;7.47;3.35;;;21.80;99.90;;;;;;4844074;29;20219;-72
2023/10/07 13:07:14;;;;;;;8.40;3.75;;;21.80;99.90;;;;;;4844251;29;20191;-71
2023/10/07 13:09:40;;;;;;;7.15;3.35;;;21.80;99.90;;;;;;4844112;29;20237;-72
2023/10/07 13:12:15;;;;;;;7.70;3.53;;;22.00;99.90;;;;;;4843920;29;20240;-72
2023/10/07 13:14:41;;;;;;;6.82;3.10;;;22.10;99.90;;;;;;4844200;29;20586;-72
2023/10/07 13:17:07;;;;;;;7.13;3.28;;;22.00;99.90;;;;;;4844115;29;20187;-72
2023/10/07 13:19:36;;;;;;;7.18;3.45;;;22.00;99.90;;;;;;4844070;29;20189;-72
2023/10/07 13:22:05;;;;;;;8.32;3.42;;;22.00;99.90;;;;;;4843891;29;20198;-71
2023/10/07 13:24:31;;;;;;;5.93;3.55;;;21.90;99.90;;;;;;4843850;29;20545;-71
2023/10/07 13:26:57;;;;;;;6.47;3.55;;;21.90;99.90;;;;;;4844133;29;20179;-71
2023/10/07 13:29:23;;;;;;;11.93;3.75;;;21.90;99.90;;;;;;4843939;29;20179;-71
2023/10/07 13:31:50;;;;;;;6.57;3.53;;;22.00;99.90;;;;;;4843909;29;20211;-71
2023/10/07 13:34:17;;;;;;;8.98;3.50;;;22.00;99.90;;;;;;4843789;29;20222;-73
2023/10/07 13:36:43;;;;;;;8.70;3.90;;;22.10;99.90;;;;;;4843744;29;20178;-71
2023/10/07 13:39:15;;;;;;;7.57;3.40;;;22.10;99.90;;;;;;4843621;29;20191;-70
2023/10/07 13:41:45;;;;;;;7.70;3.47;;;22.10;99.90;;;;;;4843747;29;20278;-71
2023/10/07 13:44:16;;;;;;;6.65;3.10;;;22.10;99.90;;;;;;4843934;29;20214;-71
2023/10/07 13:46:42;;;;;;;8.57;3.60;;;22.00;99.90;;;;;;4827486;29;20672;-71
2023/10/07 13:49:13;;;;;;;8.05;3.22;;;21.80;99.90;;;;;;4827061;29;20182;-69
2023/10/07 13:51:43;;;;;;;6.30;3.30;;;21.90;99.90;;;;;;4843291;29;20190;-71
2023/10/07 13:54:22;;;;;;;8.13;3.80;;;21.80;99.90;;;;;;4843474;29;20246;-70